Time;durP1;ratioP1;P1;durP2;ratioP2;P2;SDS_P1;SDS_P2;PMS_P1;PMS_P2;Temp;Humidity;BMP_temperature;BMP_pressure;BME280_temperature;BME280_humidity;BME280_pressure;Samples;Min_cycle;Max_cycle;Signal;HPM_P1;HPM_P2
2022/10/30 00:00:06;;;;;;;8.15;3.95;;;19.60;93.60;;;;;;5053052;28;20017;-74
2022/10/30 00:02:31;;;;;;;8.98;4.50;;;19.60;93.60;;;;;;5052901;28;20481;-74
2022/10/30 00:04:57;;;;;;;14.52;4.25;;;19.60;93.60;;;;;;5053195;28;20029;-74
2022/10/30 00:07:23;;;;;;;12.35;4.82;;;19.50;93.60;;;;;;5053241;28;20465;-74
2022/10/30 00:09:48;;;;;;;10.85;4.82;;;19.50;93.60;;;;;;5053302;28;20112;-75
2022/10/30 00:12:14;;;;;;;10.88;4.50;;;19.50;93.60;;;;;;5056381;28;20036;-74
2022/10/30 00:14:39;;;;;;;15.18;4.50;;;19.50;93.60;;;;;;5057411;28;20017;-75
2022/10/30 00:17:05;;;;;;;15.65;5.80;;;19.50;93.60;;;;;;5056860;28;20527;-74
2022/10/30 00:19:30;;;;;;;14.27;4.78;;;19.50;93.60;;;;;;5057041;28;20021;-74
2022/10/30 00:21:56;;;;;;;13.55;5.18;;;19.50;93.60;;;;;;5057101;28;20031;-74
2022/10/30 00:24:22;;;;;;;15.57;4.63;;;19.50;93.50;;;;;;5056874;28;20045;-75
2022/10/30 00:26:48;;;;;;;13.80;5.22;;;19.40;93.50;;;;;;5057009;28;20029;-74
2022/10/30 00:29:14;;;;;;;9.57;5.07;;;19.40;93.40;;;;;;5056720;28;20090;-74
2022/10/30 00:31:40;;;;;;;14.85;5.15;;;19.40;93.50;;;;;;5056751;28;20037;-75
2022/10/30 00:34:06;;;;;;;10.32;3.90;;;19.40;93.60;;;;;;5057054;28;20052;-73
2022/10/30 00:36:31;;;;;;;13.95;4.70;;;19.40;93.60;;;;;;5056937;28;20044;-74
2022/10/30 00:38:57;;;;;;;13.88;4.60;;;19.40;93.70;;;;;;5056757;28;20056;-75
2022/10/30 00:41:23;;;;;;;10.98;5.07;;;19.40;93.50;;;;;;5056909;28;20029;-75
2022/10/30 00:43:49;;;;;;;11.68;4.50;;;19.30;93.50;;;;;;5056896;28;20044;-75
2022/10/30 00:46:29;;;;;;;17.50;5.97;;;19.30;93.80;;;;;;5056798;28;20051;-75
2022/10/30 00:48:59;;;;;;;15.30;5.43;;;19.20;93.40;;;;;;5056595;28;20021;-75
2022/10/30 00:51:27;;;;;;;15.63;5.82;;;19.20;93.40;;;;;;5056646;28;20032;-75
2022/10/30 00:53:57;;;;;;;17.70;6.20;;;19.20;93.40;;;;;;5056291;28;20384;-75
2022/10/30 00:56:23;;;;;;;16.08;5.10;;;19.20;93.60;;;;;;5056387;28;20021;-76
2022/10/30 00:58:58;;;;;;;14.35;4.70;;;19.10;93.60;;;;;;5056208;28;20033;-73
2022/10/30 01:01:27;;;;;;;7.93;4.50;;;19.10;93.60;;;;;;5056375;28;20094;-74
2022/10/30 01:03:56;;;;;;;10.00;4.32;;;19.20;93.60;;;;;;5056198;28;20499;-75
2022/10/30 01:06:23;;;;;;;10.18;5.00;;;19.10;93.70;;;;;;5056188;28;20476;-74
2022/10/30 01:08:49;;;;;;;16.08;5.22;;;19.20;93.70;;;;;;5055906;28;20029;-74
2022/10/30 01:11:15;;;;;;;14.38;4.65;;;19.10;93.60;;;;;;5055976;28;20473;-74
2022/10/30 01:13:44;;;;;;;8.77;4.40;;;19.10;93.70;;;;;;5055974;28;20087;-74
2022/10/30 01:16:43;;;;;;;13.50;4.82;;;19.10;93.70;;;;;;5054812;28;20087;-74
2022/10/30 01:19:29;;;;;;;11.57;4.95;;;19.10;93.80;;;;;;5056285;28;20445;-75
2022/10/30 01:22:29;;;;;;;9.40;4.60;;;19.10;93.80;;;;;;5055855;28;20031;-75
2022/10/30 01:25:26;;;;;;;12.00;4.32;;;19.10;93.90;;;;;;5056028;28;20025;-75
2022/10/30 01:28:03;;;;;;;10.75;4.55;;;19.20;94.00;;;;;;5046399;28;20029;-75
2022/10/30 01:30:59;;;;;;;7.82;4.47;;;19.20;94.00;;;;;;5055654;28;20045;-75
2022/10/30 01:33:46;;;;;;;16.40;4.70;;;19.10;94.10;;;;;;5055464;28;20484;-75
2022/10/30 01:36:20;;;;;;;17.45;4.70;;;19.10;94.10;;;;;;5055960;28;20039;-74
2022/10/30 01:38:51;;;;;;;13.55;5.30;;;19.10;94.10;;;;;;5055782;28;20021;-75
2022/10/30 01:41:17;;;;;;;14.10;6.18;;;19.10;94.10;;;;;;5055637;28;20076;-74
2022/10/30 01:43:45;;;;;;;16.23;5.80;;;19.10;94.10;;;;;;5055461;28;20029;-74
2022/10/30 01:46:29;;;;;;;9.95;4.90;;;19.00;93.90;;;;;;5055405;28;20460;-74
2022/10/30 01:49:18;;;;;;;9.38;4.70;;;18.90;94.00;;;;;;5055737;28;20060;-74
2022/10/30 01:52:11;;;;;;;11.23;4.78;;;19.00;94.10;;;;;;5055345;28;20029;-74
2022/10/30 01:54:58;;;;;;;;;;;19.00;94.10;;;;;;5056052;28;20027;-74
2022/10/30 01:57:35;;;;;;;7.55;4.18;;;19.00;94.40;;;;;;5055035;28;20012;-75
2022/10/30 02:00:09;;;;;;;12.30;4.95;;;18.90;94.20;;;;;;5055323;28;20032;-74
2022/10/30 02:02:35;;;;;;;9.82;4.45;;;18.90;94.20;;;;;;5055209;28;20032;-74
2022/10/30 02:05:02;;;;;;;10.93;4.55;;;19.00;94.20;;;;;;5055386;28;20033;-74
2022/10/30 02:07:27;;;;;;;9.25;5.10;;;19.00;94.20;;;;;;5054985;28;20025;-74
2022/10/30 02:09:54;;;;;;;9.27;4.50;;;19.00;94.20;;;;;;5054727;28;20028;-74
2022/10/30 02:12:21;;;;;;;9.93;4.55;;;19.00;94.20;;;;;;5055206;28;20040;-74
2022/10/30 02:14:51;;;;;;;12.00;5.13;;;19.00;94.30;;;;;;5055145;28;20066;-74
2022/10/30 02:17:17;;;;;;;14.30;5.40;;;19.00;94.20;;;;;;5055166;28;20083;-74
2022/10/30 02:19:43;;;;;;;15.07;5.30;;;19.00;94.10;;;;;;5055127;28;20032;-74
2022/10/30 02:22:10;;;;;;;10.90;5.30;;;19.00;94.00;;;;;;5054462;28;20017;-74
2022/10/30 02:24:36;;;;;;;11.40;5.35;;;19.00;93.90;;;;;;5054733;28;20035;-75
2022/10/30 02:27:01;;;;;;;12.88;5.57;;;19.00;94.00;;;;;;5054933;28;20104;-74
2022/10/30 02:29:27;;;;;;;9.68;4.32;;;19.00;94.00;;;;;;5054586;28;20053;-73
2022/10/30 02:31:52;;;;;;;11.05;4.80;;;19.00;94.00;;;;;;5054543;28;20037;-75
2022/10/30 02:34:18;;;;;;;12.15;5.45;;;19.00;94.00;;;;;;5053953;28;20053;-75
2022/10/30 02:36:44;;;;;;;12.82;5.65;;;19.00;94.00;;;;;;5054361;28;20388;-74
2022/10/30 02:39:09;;;;;;;12.55;5.20;;;18.90;94.00;;;;;;5054902;28;20456;-74
2022/10/30 02:41:35;;;;;;;12.38;5.03;;;18.90;94.10;;;;;;5054375;28;20159;-74
2022/10/30 02:44:03;;;;;;;9.20;4.00;;;19.00;94.20;;;;;;5054397;28;20393;-74
2022/10/30 02:46:28;;;;;;;9.48;4.53;;;18.90;94.20;;;;;;5054225;28;20055;-74
2022/10/30 02:48:54;;;;;;;10.38;4.15;;;18.90;94.30;;;;;;5054337;28;20021;-75
2022/10/30 02:51:19;;;;;;;8.45;4.22;;;19.00;94.40;;;;;;5054316;28;20453;-75
2022/10/30 02:53:46;;;;;;;12.35;5.90;;;19.00;94.40;;;;;;5054101;28;20050;-74
2022/10/30 02:56:13;;;;;;;12.57;4.95;;;19.00;94.40;;;;;;5054378;28;20104;-74
2022/10/30 02:58:40;;;;;;;16.27;5.75;;;18.90;94.20;;;;;;5054116;28;20033;-74
2022/10/30 03:01:11;;;;;;;14.50;5.40;;;18.90;94.10;;;;;;5054185;28;20029;-75
2022/10/30 03:03:36;;;;;;;8.40;4.93;;;18.90;94.00;;;;;;5053866;28;20028;-75
2022/10/30 03:06:04;;;;;;;9.35;5.05;;;18.90;94.10;;;;;;5053868;28;20029;-75
2022/10/30 03:08:30;;;;;;;11.75;4.85;;;18.90;94.20;;;;;;5054150;28;20053;-74
2022/10/30 03:11:15;;;;;;;10.52;4.55;;;18.90;94.20;;;;;;5053884;28;20364;-74
2022/10/30 03:13:43;;;;;;;12.48;6.07;;;18.90;94.30;;;;;;5053835;28;20542;-74
2022/10/30 03:16:16;;;;;;;12.05;5.40;;;18.90;94.30;;;;;;5053683;28;20484;-74
2022/10/30 03:18:41;;;;;;;16.25;5.32;;;18.80;94.20;;;;;;5053963;28;20043;-74
2022/10/30 03:21:09;;;;;;;13.32;5.80;;;18.80;94.20;;;;;;5053898;28;20029;-75
2022/10/30 03:23:35;;;;;;;13.48;5.80;;;18.80;94.20;;;;;;5053729;28;20017;-75
2022/10/30 03:26:01;;;;;;;10.48;4.50;;;18.70;94.20;;;;;;5053615;28;20504;-74
2022/10/30 03:28:29;;;;;;;9.50;4.95;;;18.80;94.20;;;;;;5053609;28;20029;-74
2022/10/30 03:31:06;;;;;;;16.92;6.05;;;18.80;94.30;;;;;;5052889;28;20052;-74
2022/10/30 03:33:32;;;;;;;14.90;6.47;;;18.80;94.30;;;;;;5053686;28;20037;-74
2022/10/30 03:35:58;;;;;;;13.57;5.45;;;18.70;94.10;;;;;;5053655;28;20021;-74
2022/10/30 03:38:24;;;;;;;11.23;5.35;;;18.60;94.10;;;;;;5054117;28;20075;-74
2022/10/30 03:40:50;;;;;;;16.88;6.07;;;18.60;94.20;;;;;;5053755;28;20496;-74
2022/10/30 03:43:16;;;;;;;12.98;6.18;;;18.60;94.20;;;;;;5053367;28;20031;-74
2022/10/30 03:45:47;;;;;;;15.80;6.30;;;18.60;94.20;;;;;;5052752;28;20140;-75
2022/10/30 03:48:12;;;;;;;14.80;5.85;;;18.60;94.30;;;;;;5053514;28;20040;-75
2022/10/30 03:50:38;;;;;;;13.70;5.18;;;18.60;94.40;;;;;;5053215;28;20021;-73
2022/10/30 03:53:03;;;;;;;11.95;5.32;;;18.60;94.40;;;;;;5053325;28;20075;-74
2022/10/30 03:55:29;;;;;;;9.55;4.53;;;18.60;94.50;;;;;;5053489;28;20461;-74
2022/10/30 03:57:54;;;;;;;10.35;4.47;;;18.60;94.50;;;;;;5052865;28;20112;-75
2022/10/30 04:00:20;;;;;;;13.63;5.40;;;18.60;94.50;;;;;;5053280;28;20021;-74
2022/10/30 04:02:50;;;;;;;10.40;5.32;;;18.70;94.60;;;;;;5053351;28;20075;-74
2022/10/30 04:05:18;;;;;;;14.43;6.05;;;18.60;94.50;;;;;;5053337;28;20021;-74
2022/10/30 04:07:44;;;;;;;13.40;6.15;;;18.60;94.50;;;;;;5052884;28;20052;-75
2022/10/30 04:10:11;;;;;;;11.95;5.38;;;18.60;94.50;;;;;;5053317;28;20476;-74
2022/10/30 04:12:36;;;;;;;12.68;5.65;;;18.70;94.70;;;;;;5053063;28;20036;-74
2022/10/30 04:15:08;;;;;;;9.77;5.80;;;18.70;94.70;;;;;;5053223;28;20021;-74
2022/10/30 04:17:34;;;;;;;13.07;5.20;;;18.70;94.70;;;;;;5052817;28;20075;-74
2022/10/30 04:19:59;;;;;;;12.70;5.57;;;18.60;94.60;;;;;;5053101;28;20021;-75
2022/10/30 04:22:25;;;;;;;10.82;5.05;;;18.60;94.50;;;;;;5053030;28;20530;-74
2022/10/30 04:24:52;;;;;;;9.90;5.07;;;18.60;94.60;;;;;;5052736;28;20108;-74
2022/10/30 04:27:19;;;;;;;9.20;4.90;;;18.60;94.60;;;;;;5053164;28;20040;-74
2022/10/30 04:29:45;;;;;;;12.00;5.25;;;18.60;94.60;;;;;;5052846;28;20056;-74
2022/10/30 04:32:11;;;;;;;10.48;5.22;;;18.60;94.60;;;;;;5052861;28;20416;-74
2022/10/30 04:34:38;;;;;;;9.65;5.43;;;18.60;94.60;;;;;;5052789;28;20519;-74
2022/10/30 04:37:05;;;;;;;12.13;5.65;;;18.60;94.60;;;;;;5052840;28;20029;-74
2022/10/30 04:39:31;;;;;;;11.35;5.32;;;18.60;94.60;;;;;;5052734;28;20037;-74
2022/10/30 04:41:57;;;;;;;12.60;6.22;;;18.60;94.50;;;;;;5053023;28;20029;-74
2022/10/30 04:44:22;;;;;;;10.70;5.68;;;18.60;94.50;;;;;;5052819;28;20381;-74
2022/10/30 04:46:48;;;;;;;12.80;6.07;;;18.60;94.50;;;;;;5052690;28;20051;-74
2022/10/30 04:49:13;;;;;;;15.75;6.35;;;18.60;94.40;;;;;;5052817;28;20079;-74
2022/10/30 04:51:39;;;;;;;13.93;6.38;;;18.60;94.40;;;;;;5052885;28;20065;-74
2022/10/30 04:54:05;;;;;;;13.77;6.25;;;18.60;94.40;;;;;;5052845;28;20044;-75
2022/10/30 04:56:31;;;;;;;9.75;5.82;;;18.50;94.40;;;;;;5053328;28;20036;-73
2022/10/30 04:58:57;;;;;;;11.32;5.18;;;18.60;94.50;;;;;;5056540;28;20377;-74
2022/10/30 05:01:26;;;;;;;8.05;5.18;;;18.60;94.60;;;;;;5056294;28;20032;-75
2022/10/30 05:03:51;;;;;;;11.65;5.25;;;18.60;94.70;;;;;;5056579;28;20112;-75
2022/10/30 05:06:29;;;;;;;14.23;4.95;;;18.60;95.00;;;;;;5056504;28;20563;-75
2022/10/30 05:08:55;;;;;;;12.32;5.97;;;18.60;94.70;;;;;;5056004;28;20476;-75
2022/10/30 05:11:20;;;;;;;12.35;6.30;;;18.50;94.60;;;;;;5056344;28;20041;-75
2022/10/30 05:13:47;;;;;;;13.07;5.90;;;18.60;94.50;;;;;;5056375;28;20036;-74
2022/10/30 05:16:12;;;;;;;12.02;5.93;;;18.50;94.50;;;;;;5056190;28;20051;-74
2022/10/30 05:18:38;;;;;;;16.70;6.20;;;18.50;94.50;;;;;;5056347;28;20025;-74
2022/10/30 05:21:03;;;;;;;9.82;5.40;;;18.50;94.50;;;;;;5055974;28;20025;-74
2022/10/30 05:23:29;;;;;;;7.00;4.28;;;18.50;94.50;;;;;;5055640;28;20112;-74
2022/10/30 05:25:55;;;;;;;13.73;5.82;;;18.40;94.60;;;;;;5055813;28;20358;-73
2022/10/30 05:28:20;;;;;;;19.38;7.32;;;18.50;94.80;;;;;;5055906;28;20041;-75
2022/10/30 05:30:46;;;;;;;9.15;5.35;;;18.40;94.40;;;;;;5055623;28;20428;-75
2022/10/30 05:33:16;;;;;;;11.52;5.45;;;18.30;94.60;;;;;;5055354;28;20074;-74
2022/10/30 05:35:42;;;;;;;11.82;5.22;;;18.30;94.80;;;;;;5055651;28;20029;-75
2022/10/30 05:38:09;;;;;;;18.33;7.20;;;18.30;94.70;;;;;;5055822;28;20027;-75
2022/10/30 05:40:34;;;;;;;10.00;5.22;;;18.20;94.60;;;;;;5055522;28;20024;-75
2022/10/30 05:43:00;;;;;;;11.30;5.80;;;18.10;94.70;;;;;;5055690;28;20078;-74
2022/10/30 05:45:26;;;;;;;15.15;6.00;;;18.10;94.80;;;;;;5055574;28;20070;-74
2022/10/30 05:47:59;;;;;;;12.23;5.38;;;18.10;94.80;;;;;;5055678;28;20469;-76
2022/10/30 05:50:25;;;;;;;7.13;4.05;;;18.10;94.90;;;;;;5055408;28;20033;-74
2022/10/30 05:53:09;;;;;;;11.27;5.10;;;18.20;95.00;;;;;;5055172;28;20044;-75
2022/10/30 05:55:35;;;;;;;13.02;6.13;;;18.20;95.20;;;;;;5053460;28;20028;-75
2022/10/30 05:58:05;;;;;;;15.02;6.13;;;18.20;95.20;;;;;;5055505;28;20377;-73
2022/10/30 06:00:33;;;;;;;10.98;6.05;;;18.20;95.00;;;;;;5055318;28;20151;-74
2022/10/30 06:03:03;;;;;;;10.52;4.97;;;18.20;95.00;;;;;;5055381;28;20131;-74
2022/10/30 06:05:30;;;;;;;16.67;5.90;;;18.10;95.00;;;;;;5055522;28;20036;-74
2022/10/30 06:07:56;;;;;;;11.48;5.97;;;18.10;95.10;;;;;;5054852;28;20381;-74
2022/10/30 06:10:22;;;;;;;12.85;5.45;;;18.10;95.00;;;;;;5054647;28;20021;-74
2022/10/30 06:12:56;;;;;;;10.57;4.85;;;18.00;95.00;;;;;;5054857;28;20483;-74
2022/10/30 06:15:22;;;;;;;15.85;6.22;;;18.00;95.10;;;;;;5055203;28;20090;-74
2022/10/30 06:17:48;;;;;;;13.65;6.45;;;18.00;95.30;;;;;;5055218;28;20033;-74
2022/10/30 06:20:16;;;;;;;15.48;6.18;;;18.00;95.20;;;;;;5055197;28;20035;-74
2022/10/30 06:22:51;;;;;;;8.38;5.47;;;17.90;95.20;;;;;;5054875;28;20473;-75
2022/10/30 06:25:17;;;;;;;11.27;5.10;;;18.00;95.40;;;;;;5054854;28;20028;-75
2022/10/30 06:27:42;;;;;;;8.95;4.35;;;18.00;95.50;;;;;;5054654;28;20021;-75
2022/10/30 06:30:08;;;;;;;13.57;5.78;;;18.00;95.60;;;;;;5054207;28;20132;-75
2022/10/30 06:32:34;;;;;;;10.15;5.85;;;18.10;95.70;;;;;;5054817;28;20068;-75
2022/10/30 06:35:00;;;;;;;12.80;7.10;;;18.10;95.60;;;;;;5054651;28;20052;-75
2022/10/30 06:37:25;;;;;;;17.02;6.43;;;18.10;95.50;;;;;;5054303;28;20028;-75
2022/10/30 06:39:51;;;;;;;11.05;6.28;;;18.10;95.40;;;;;;5054533;28;20017;-75
2022/10/30 06:42:17;;;;;;;14.82;6.38;;;18.10;95.40;;;;;;5054515;28;20059;-75
2022/10/30 06:44:42;;;;;;;10.32;5.97;;;18.10;95.40;;;;;;5054265;28;20066;-73
2022/10/30 06:47:08;;;;;;;15.02;6.18;;;18.00;95.30;;;;;;5054818;28;20028;-74
2022/10/30 06:49:33;;;;;;;10.88;6.53;;;18.00;95.20;;;;;;5054323;28;20357;-75
2022/10/30 06:51:59;;;;;;;12.55;5.95;;;18.00;95.20;;;;;;5054092;28;20037;-75
2022/10/30 06:54:24;;;;;;;9.77;5.60;;;18.00;95.30;;;;;;5054273;28;20094;-74
2022/10/30 06:56:50;;;;;;;11.90;5.95;;;18.00;95.40;;;;;;5054231;28;20029;-75
2022/10/30 06:59:16;;;;;;;21.27;9.63;;;18.00;95.30;;;;;;5054360;28;20059;-75
2022/10/30 07:01:41;;;;;;;19.77;6.82;;;17.90;95.20;;;;;;5053967;28;20021;-74
2022/10/30 07:04:07;;;;;;;13.27;6.13;;;17.80;95.20;;;;;;5054328;28;20026;-75
2022/10/30 07:06:32;;;;;;;17.58;7.45;;;17.80;95.30;;;;;;5053862;28;20610;-74
2022/10/30 07:08:58;;;;;;;15.75;6.57;;;17.80;95.20;;;;;;5054868;28;20017;-74
2022/10/30 07:11:24;;;;;;;13.57;6.30;;;17.70;95.30;;;;;;5058796;28;20064;-74
2022/10/30 07:13:49;;;;;;;14.38;7.00;;;17.70;95.40;;;;;;5054859;28;20037;-73
2022/10/30 07:16:15;;;;;;;14.45;7.10;;;17.70;95.50;;;;;;5053965;28;20024;-74
2022/10/30 07:18:40;;;;;;;11.95;5.97;;;17.80;95.60;;;;;;5054090;28;20060;-75
2022/10/30 07:21:06;;;;;;;15.65;6.70;;;17.70;95.60;;;;;;5053781;28;20032;-74
2022/10/30 07:23:32;;;;;;;10.13;5.90;;;17.80;95.70;;;;;;5053822;28;20495;-74
2022/10/30 07:25:58;;;;;;;14.95;7.20;;;17.90;95.80;;;;;;5053482;28;20143;-74
2022/10/30 07:28:23;;;;;;;16.05;7.28;;;17.90;95.70;;;;;;5053526;28;20025;-75
2022/10/30 07:30:50;;;;;;;13.48;6.88;;;17.80;95.60;;;;;;5053390;28;20048;-75
2022/10/30 07:33:16;;;;;;;13.18;6.80;;;17.80;95.50;;;;;;5053670;28;20162;-75
2022/10/30 07:35:41;;;;;;;15.98;7.60;;;17.80;95.50;;;;;;5053485;28;20041;-75
2022/10/30 07:38:10;;;;;;;13.38;7.82;;;17.70;95.40;;;;;;5053185;28;20021;-75
2022/10/30 07:40:36;;;;;;;22.20;8.48;;;17.70;95.40;;;;;;5053742;28;20033;-74
2022/10/30 07:43:03;;;;;;;15.60;7.55;;;17.60;95.70;;;;;;5053239;28;20078;-75
2022/10/30 07:45:29;;;;;;;15.70;6.78;;;17.60;95.50;;;;;;5053624;28;20029;-74
2022/10/30 07:47:55;;;;;;;15.30;7.90;;;17.60;95.80;;;;;;5053596;28;20021;-75
2022/10/30 07:50:21;;;;;;;14.38;7.82;;;17.60;95.80;;;;;;5053288;28;20396;-75
2022/10/30 07:52:47;;;;;;;18.20;8.55;;;17.70;95.80;;;;;;5052998;28;20064;-75
2022/10/30 07:55:12;;;;;;;14.98;8.57;;;17.70;95.80;;;;;;5053441;28;20023;-74
2022/10/30 07:57:40;;;;;;;14.52;7.63;;;17.70;95.80;;;;;;5053012;28;20548;-74
2022/10/30 08:00:09;;;;;;;14.68;7.95;;;17.70;95.70;;;;;;5053074;28;20032;-74
2022/10/30 08:02:35;;;;;;;14.05;7.07;;;17.70;95.70;;;;;;5053025;28;20111;-74
2022/10/30 08:05:00;;;;;;;17.27;7.22;;;17.80;95.80;;;;;;5053183;28;20063;-75
2022/10/30 08:07:30;;;;;;;17.20;7.38;;;17.80;96.20;;;;;;5057874;28;20035;-72
2022/10/30 08:09:56;;;;;;;16.80;7.90;;;17.90;96.20;;;;;;5055894;28;20017;-73
2022/10/30 08:12:22;;;;;;;21.77;8.65;;;17.90;95.80;;;;;;5053243;28;20503;-74
2022/10/30 08:14:48;;;;;;;16.13;8.13;;;18.00;95.80;;;;;;5052977;28;20071;-75
2022/10/30 08:17:13;;;;;;;18.90;10.40;;;18.00;95.90;;;;;;5052960;28;20104;-75
2022/10/30 08:19:39;;;;;;;20.65;10.50;;;18.00;96.00;;;;;;5053298;28;20554;-75
2022/10/30 08:22:05;;;;;;;20.70;9.75;;;17.90;96.10;;;;;;5052834;28;20055;-75
2022/10/30 08:24:30;;;;;;;17.77;9.77;;;17.80;96.40;;;;;;5052846;28;20074;-74
2022/10/30 08:26:57;;;;;;;20.27;10.45;;;17.70;96.30;;;;;;5053562;28;20045;-74
2022/10/30 08:29:23;;;;;;;16.60;9.63;;;17.60;96.50;;;;;;5052437;28;20052;-75
2022/10/30 08:31:49;;;;;;;20.77;11.20;;;17.60;96.60;;;;;;5053754;28;20037;-75
2022/10/30 08:34:15;;;;;;;19.92;11.55;;;17.50;96.60;;;;;;5056835;28;20476;-76
2022/10/30 08:36:41;;;;;;;20.45;10.30;;;17.40;96.80;;;;;;5057120;28;20048;-75
2022/10/30 08:39:06;;;;;;;20.63;10.68;;;17.40;97.10;;;;;;5056791;28;20025;-75
2022/10/30 08:41:32;;;;;;;22.48;11.00;;;17.40;97.30;;;;;;5056880;28;20453;-75
2022/10/30 08:43:57;;;;;;;20.90;10.50;;;17.40;97.40;;;;;;5056733;28;20067;-74
2022/10/30 08:46:23;;;;;;;19.42;10.82;;;17.50;97.50;;;;;;5056712;28;20021;-75
2022/10/30 08:48:49;;;;;;;19.48;10.43;;;17.50;97.60;;;;;;5056503;28;20535;-75
2022/10/30 08:51:14;;;;;;;19.77;11.50;;;17.60;97.50;;;;;;5056674;28;20037;-75
2022/10/30 08:53:40;;;;;;;23.02;11.98;;;17.70;97.40;;;;;;5056357;28;20036;-75
2022/10/30 08:56:05;;;;;;;20.90;11.85;;;17.70;97.30;;;;;;5056356;28;20043;-74
2022/10/30 08:58:31;;;;;;;21.92;10.27;;;17.70;97.20;;;;;;5056622;28;20047;-74
2022/10/30 09:00:56;;;;;;;19.00;11.65;;;17.70;97.30;;;;;;5056559;28;20025;-73
2022/10/30 09:03:22;;;;;;;16.52;10.82;;;17.80;97.30;;;;;;5057345;28;20029;-74
2022/10/30 09:05:48;;;;;;;17.80;9.38;;;17.80;97.20;;;;;;5057409;28;20021;-76
2022/10/30 09:08:14;;;;;;;19.05;9.23;;;17.80;97.30;;;;;;5055962;28;20095;-74
2022/10/30 09:10:40;;;;;;;18.83;8.18;;;17.90;97.20;;;;;;5056388;28;20170;-75
2022/10/30 09:13:06;;;;;;;16.77;9.07;;;18.10;97.00;;;;;;5055995;28;20060;-74
2022/10/30 09:15:32;;;;;;;18.65;9.65;;;18.20;96.80;;;;;;5056286;28;20031;-75
2022/10/30 09:18:02;;;;;;;22.15;9.20;;;18.30;96.60;;;;;;5056338;28;20060;-75
2022/10/30 09:20:29;;;;;;;16.70;8.32;;;18.30;96.50;;;;;;5056312;28;20124;-74
2022/10/30 09:22:54;;;;;;;14.75;9.05;;;18.40;96.50;;;;;;5056052;28;20031;-74
2022/10/30 09:25:20;;;;;;;17.92;9.07;;;18.40;96.40;;;;;;5055834;28;20033;-75
2022/10/30 09:27:46;;;;;;;22.27;9.98;;;18.60;96.30;;;;;;5056126;28;20025;-75
2022/10/30 09:30:12;;;;;;;14.32;8.93;;;18.60;96.10;;;;;;5055463;28;20056;-75
2022/10/30 09:32:38;;;;;;;19.35;9.75;;;18.60;96.00;;;;;;5055971;28;20372;-75
2022/10/30 09:35:05;;;;;;;22.85;9.68;;;18.60;95.90;;;;;;5055885;28;20021;-75
2022/10/30 09:37:35;;;;;;;20.10;10.25;;;18.70;95.80;;;;;;5055674;28;20481;-75
2022/10/30 09:40:01;;;;;;;19.05;10.02;;;18.60;95.80;;;;;;5055850;28;20021;-75
2022/10/30 09:42:44;;;;;;;17.50;9.77;;;18.60;96.00;;;;;;5055627;28;20025;-75
2022/10/30 09:45:45;;;;;;;18.13;9.75;;;18.60;96.20;;;;;;5055295;28;20049;-75
2022/10/30 09:48:38;;;;;;;18.67;8.82;;;18.50;96.10;;;;;;5055728;28;20057;-74
2022/10/30 09:51:27;;;;;;;21.33;10.25;;;18.60;96.10;;;;;;5055124;28;20496;-75
2022/10/30 09:54:11;;;;;;;20.02;9.20;;;18.70;95.90;;;;;;5055253;28;20040;-75
2022/10/30 09:56:48;;;;;;;16.80;9.70;;;18.80;95.80;;;;;;5055358;28;20021;-74
2022/10/30 09:59:16;;;;;;;21.77;10.15;;;18.90;95.80;;;;;;5056258;28;20029;-73
2022/10/30 10:01:59;;;;;;;17.00;9.30;;;18.90;96.00;;;;;;5057831;28;20453;-74
2022/10/30 10:04:42;;;;;;;19.42;9.70;;;19.00;96.00;;;;;;5055058;28;20473;-74
2022/10/30 10:07:18;;;;;;;18.73;9.15;;;19.10;95.80;;;;;;5055374;28;20036;-74
2022/10/30 10:09:44;;;;;;;19.55;8.48;;;19.20;95.70;;;;;;5055224;28;20047;-75
2022/10/30 10:12:23;;;;;;;20.48;9.63;;;19.40;95.60;;;;;;5054881;28;20040;-75
2022/10/30 10:14:49;;;;;;;18.25;9.90;;;19.50;95.30;;;;;;5054909;28;20079;-75
2022/10/30 10:17:24;;;;;;;21.85;10.05;;;19.50;95.10;;;;;;5054579;28;20481;-75
2022/10/30 10:20:21;;;;;;;22.08;11.00;;;19.50;94.90;;;;;;5055246;28;20379;-76
2022/10/30 10:22:49;;;;;;;14.23;8.35;;;19.60;95.10;;;;;;5052926;28;20435;-76
2022/10/30 10:25:18;;;;;;;17.83;9.10;;;19.60;95.20;;;;;;5054746;28;20028;-75
2022/10/30 10:27:57;;;;;;;15.85;8.80;;;19.70;95.10;;;;;;5054649;28;20039;-75
2022/10/30 10:30:24;;;;;;;25.52;9.25;;;19.80;95.10;;;;;;5054601;28;20048;-75
2022/10/30 10:33:05;;;;;;;17.05;8.68;;;19.90;94.80;;;;;;5054403;28;20029;-75
2022/10/30 10:35:52;;;;;;;15.45;9.40;;;20.00;94.80;;;;;;5054539;28;20025;-74
2022/10/30 10:38:42;;;;;;;18.23;9.07;;;20.10;94.80;;;;;;5054148;28;20035;-75
2022/10/30 10:41:13;;;;;;;19.88;9.55;;;20.10;94.70;;;;;;5054552;28;20021;-75
2022/10/30 10:44:09;;;;;;;16.63;9.10;;;20.20;94.50;;;;;;5054252;28;20475;-75
2022/10/30 10:46:59;;;;;;;15.02;8.10;;;20.10;94.40;;;;;;5054675;28;20029;-75
2022/10/30 10:49:55;;;;;;;15.88;8.10;;;20.10;94.60;;;;;;5054121;28;20092;-75
2022/10/30 10:52:32;;;;;;;17.55;9.48;;;20.20;94.80;;;;;;5054056;28;20037;-75
2022/10/30 10:55:03;;;;;;;16.38;8.20;;;20.30;94.70;;;;;;5054209;28;20028;-75
2022/10/30 10:57:33;;;;;;;15.63;7.88;;;20.30;94.60;;;;;;5056133;28;20155;-74
2022/10/30 11:00:07;;;;;;;17.17;8.80;;;20.40;94.60;;;;;;5054422;28;20024;-76
2022/10/30 11:02:39;;;;;;;16.00;8.57;;;20.50;94.50;;;;;;5054005;28;20021;-75
2022/10/30 11:05:16;;;;;;;16.55;8.32;;;20.50;94.30;;;;;;5053921;28;20017;-75
2022/10/30 11:07:48;;;;;;;17.90;8.63;;;20.60;94.20;;;;;;5054201;28;20055;-75
2022/10/30 11:10:15;;;;;;;13.07;7.93;;;20.70;94.00;;;;;;5053846;28;20036;-75
2022/10/30 11:12:41;;;;;;;16.58;7.90;;;20.70;93.90;;;;;;5053564;28;20508;-76
2022/10/30 11:15:30;;;;;;;17.17;8.43;;;20.90;93.70;;;;;;5054038;28;20116;-75
2022/10/30 11:18:00;;;;;;;17.65;7.93;;;21.00;93.70;;;;;;5053728;28;20025;-75
2022/10/30 11:20:53;;;;;;;14.40;8.50;;;21.10;93.50;;;;;;5053743;28;20025;-75
2022/10/30 11:23:48;;;;;;;14.48;7.97;;;21.20;93.30;;;;;;5053664;28;20024;-75
2022/10/30 11:26:16;;;;;;;17.45;8.60;;;21.40;93.10;;;;;;5053846;28;20036;-75
2022/10/30 11:28:56;;;;;;;21.27;9.02;;;21.40;93.00;;;;;;5053325;28;20473;-75
2022/10/30 11:31:39;;;;;;;11.98;6.72;;;21.40;92.60;;;;;;5053341;28;20056;-75
2022/10/30 11:34:35;;;;;;;15.23;7.32;;;21.40;92.80;;;;;;5053137;28;20429;-75
2022/10/30 11:37:29;;;;;;;17.00;8.13;;;21.50;92.80;;;;;;5110457;27;20746;-76
2022/10/30 11:40:12;;;;;;;15.20;7.85;;;21.50;92.80;;;;;;5110940;28;20024;-75
2022/10/30 11:42:44;;;;;;;24.73;8.82;;;21.50;92.70;;;;;;5110672;28;20720;-75
2022/10/30 11:45:26;;;;;;;;;;;21.50;92.60;;;;;;5111428;28;20047;-75
2022/10/30 11:47:53;;;;;;;18.88;8.73;;;21.60;92.70;;;;;;5110815;28;19911;-75
2022/10/30 11:50:24;;;;;;;19.05;7.60;;;21.60;92.50;;;;;;5109676;28;20043;-75
2022/10/30 11:53:00;;;;;;;19.70;8.00;;;21.70;92.60;;;;;;5112910;28;20020;-74
2022/10/30 11:55:44;;;;;;;19.17;8.23;;;21.80;92.60;;;;;;5110676;28;20360;-76
2022/10/30 11:58:26;;;;;;;18.10;8.32;;;21.80;92.50;;;;;;5110142;28;20046;-75
2022/10/30 12:01:24;;;;;;;15.35;7.25;;;21.90;92.30;;;;;;5110833;28;20046;-76
2022/10/30 12:03:50;;;;;;;16.50;7.25;;;22.00;92.40;;;;;;5110682;28;20020;-75
2022/10/30 12:06:26;;;;;;;14.90;7.43;;;22.10;92.20;;;;;;5110799;28;20414;-76
2022/10/30 12:09:06;;;;;;;17.08;8.38;;;22.20;92.20;;;;;;5109207;28;20032;-76
2022/10/30 12:11:33;;;;;;;21.02;8.77;;;22.20;92.00;;;;;;5110324;28;20024;-76
2022/10/30 12:14:00;;;;;;;20.05;7.38;;;22.20;91.90;;;;;;5110800;28;20032;-74
2022/10/30 12:16:27;;;;;;;19.85;7.60;;;22.20;92.00;;;;;;5110509;28;20036;-75
2022/10/30 12:19:00;;;;;;;17.17;7.18;;;22.20;91.70;;;;;;5110334;28;20109;-75
2022/10/30 12:21:29;;;;;;;14.45;7.28;;;22.20;91.60;;;;;;5110138;28;20077;-76
2022/10/30 12:24:00;;;;;;;14.70;6.38;;;22.30;91.60;;;;;;5110049;28;20111;-75
2022/10/30 12:26:27;;;;;;;18.88;6.32;;;22.40;91.70;;;;;;5109680;28;20020;-75
2022/10/30 12:28:59;;;;;;;19.83;6.93;;;22.40;91.80;;;;;;5110315;28;20468;-76
2022/10/30 12:31:59;;;;;;;15.18;6.97;;;22.50;91.80;;;;;;5110240;28;20141;-75
2022/10/30 12:34:45;;;;;;;15.45;7.63;;;22.50;91.70;;;;;;5104893;28;20467;-76
2022/10/30 12:37:28;;;;;;;20.23;8.23;;;22.50;91.80;;;;;;5129482;28;20066;-74
2022/10/30 12:40:06;;;;;;;18.17;7.95;;;22.50;91.40;;;;;;5130298;28;20023;-75
2022/10/30 12:42:36;;;;;;;18.10;8.05;;;22.50;91.20;;;;;;5130274;28;20459;-75
2022/10/30 12:45:27;;;;;;;20.77;7.50;;;22.40;91.50;;;;;;5130073;28;20033;-75
2022/10/30 12:48:04;;;;;;;18.58;7.28;;;22.30;91.50;;;;;;5120515;28;20069;-73
2022/10/30 12:50:40;;;;;;;17.15;7.63;;;22.30;91.80;;;;;;5116598;28;20110;-75
2022/10/30 12:53:33;;;;;;;19.92;7.28;;;22.30;92.00;;;;;;5116417;28;20026;-76